Time;durP1;ratioP1;P1;durP2;ratioP2;P2;SDS_P1;SDS_P2;PMS_P1;PMS_P2;Temp;Humidity;BMP_temperature;BMP_pressure;BME280_temperature;BME280_humidity;BME280_pressure;Samples;Min_cycle;Max_cycle;Signal;HPM_P1;HPM_P2
2023/03/18 00:01:57;;;;;;;9.98;5.03;;;;;;;8.71;100.00;99706.31;4975869;28;19918;-75
2023/03/18 00:04:23;;;;;;;7.80;4.00;;;;;;;8.71;100.00;99695.69;4978325;28;20439;-73
2023/03/18 00:06:49;;;;;;;7.93;5.10;;;;;;;8.85;100.00;99607.09;5008371;28;20034;-73
2023/03/18 00:09:15;;;;;;;8.38;4.68;;;;;;;8.81;100.00;99578.34;4975854;28;20504;-73
2023/03/18 00:11:40;;;;;;;36.78;6.72;;;;;;;8.78;100.00;99573.34;4981354;28;20047;-77
2023/03/18 00:14:07;;;;;;;8.67;5.53;;;;;;;8.71;100.00;99594.56;4992489;28;20043;-75
2023/03/18 00:16:34;;;;;;;14.05;5.15;;;;;;;8.73;100.00;99624.47;4977965;28;20281;-73
2023/03/18 00:19:01;;;;;;;9.73;5.25;;;;;;;8.72;100.00;99614.84;4991569;28;20105;-73
2023/03/18 00:21:28;;;;;;;7.80;4.75;;;;;;;8.71;100.00;99621.16;4966721;28;20023;-73
2023/03/18 00:23:55;;;;;;;7.57;4.75;;;;;;;8.72;100.00;99622.81;4963474;28;20037;-73
2023/03/18 00:26:22;;;;;;;10.43;4.50;;;;;;;8.77;100.00;99632.94;4991371;28;20038;-74
2023/03/18 00:28:49;;;;;;;10.07;4.63;;;;;;;8.72;100.00;99616.66;4964534;28;20035;-74
2023/03/18 00:31:14;;;;;;;10.90;5.30;;;;;;;8.72;100.00;99633.47;4980762;28;20057;-74
2023/03/18 00:33:43;;;;;;;8.50;4.40;;;;;;;8.74;100.00;99630.63;4976377;28;20543;-77
2023/03/18 00:36:12;;;;;;;7.05;4.55;;;;;;;8.75;100.00;99635.75;4973419;28;20046;-73
2023/03/18 00:38:39;;;;;;;7.47;4.75;;;;;;;8.76;100.00;99634.75;4976138;28;20034;-73
2023/03/18 00:41:11;;;;;;;9.13;4.72;;;;;;;8.75;100.00;99616.31;4992361;28;20138;-76
2023/03/18 00:43:53;;;;;;;8.45;5.03;;;;;;;8.77;100.00;99620.44;4977951;28;20117;-75
2023/03/18 00:46:28;;;;;;;9.23;4.97;;;;;;;8.75;100.00;99627.78;4963135;28;20042;-73
2023/03/18 00:48:56;;;;;;;9.25;5.05;;;;;;;8.73;100.00;99627.13;4991770;28;20042;-73
2023/03/18 00:51:24;;;;;;;7.88;4.60;;;;;;;8.75;100.00;99627.78;4972048;28;20488;-73
2023/03/18 00:53:53;;;;;;;8.27;5.05;;;;;;;8.70;100.00;99646.09;4974608;28;20043;-76
2023/03/18 00:56:21;;;;;;;8.57;5.00;;;;;;;8.70;100.00;99651.44;5010242;28;20455;-74
2023/03/18 00:58:47;;;;;;;9.25;4.57;;;;;;;8.68;100.00;99668.59;4992808;28;20034;-76
2023/03/18 01:01:13;;;;;;;;;;;;;;;8.78;100.00;99685.97;4972479;28;20018;-74
2023/03/18 01:03:41;;;;;;;;;;;;;;;8.80;100.00;99677.81;5009465;28;20401;-75
2023/03/18 01:06:10;;;;;;;11.80;4.47;;;;;;;8.91;100.00;99685.38;4992300;28;19914;-73
2023/03/18 01:08:35;;;;;;;7.43;4.80;;;;;;;8.82;100.00;99644.69;4976506;28;20049;-77
2023/03/18 01:11:01;;;;;;;6.70;3.70;;;;;;;8.80;100.00;99662.69;4991456;28;20038;-75
2023/03/18 01:13:28;;;;;;;15.50;4.75;;;;;;;8.81;100.00;99668.84;4982756;28;20412;-75
2023/03/18 01:15:55;;;;;;;8.50;4.15;;;;;;;8.83;100.00;99662.31;4978392;28;20038;-73
2023/03/18 01:18:20;;;;;;;;;;;;;;;8.87;100.00;99686.72;4962405;28;20467;-77
2023/03/18 01:20:46;;;;;;;6.97;4.78;;;;;;;8.81;100.00;99674.16;4999467;28;19914;-74
2023/03/18 01:23:13;;;;;;;6.38;3.88;;;;;;;8.77;100.00;99688.81;5013115;28;20311;-75
2023/03/18 01:25:41;;;;;;;11.57;4.72;;;;;;;8.75;100.00;99718.25;4980012;28;20030;-77
2023/03/18 01:28:06;;;;;;;6.97;4.22;;;;;;;8.82;100.00;99743.16;4995652;28;20488;-73
2023/03/18 01:30:34;;;;;;;8.95;4.40;;;;;;;8.83;100.00;99736.03;5013255;28;20063;-73
2023/03/18 01:33:03;;;;;;;9.23;4.60;;;;;;;8.88;100.00;99750.44;4983244;28;20049;-75
2023/03/18 01:35:30;;;;;;;6.38;4.40;;;;;;;8.84;100.00;99749.13;4980886;28;20031;-73
2023/03/18 01:37:56;;;;;;;6.75;4.60;;;;;;;8.86;100.00;99768.44;5008692;28;20038;-77
2023/03/18 01:40:24;;;;;;;6.55;4.30;;;;;;;8.86;100.00;99770.25;4980538;28;20038;-73
2023/03/18 01:43:11;;;;;;;8.32;4.47;;;;;;;8.91;100.00;99807.84;4978045;28;20042;-73
2023/03/18 01:45:37;;;;;;;7.60;4.38;;;;;;;8.91;100.00;99791.03;4981082;28;20294;-73
2023/03/18 01:48:03;;;;;;;7.88;5.32;;;;;;;8.94;100.00;99807.47;4978771;28;20038;-74
2023/03/18 01:50:33;;;;;;;9.02;4.90;;;;;;;8.92;100.00;99804.19;4981106;28;20030;-77
2023/03/18 01:53:03;;;;;;;11.27;5.10;;;;;;;8.88;100.00;99816.19;4964975;28;20030;-74
2023/03/18 01:55:31;;;;;;;6.10;4.50;;;;;;;8.89;100.00;99836.47;4975397;28;20031;-75
2023/03/18 01:57:58;;;;;;;7.25;4.13;;;;;;;8.84;100.00;99852.94;4980971;28;20092;-75
2023/03/18 02:00:24;;;;;;;7.35;5.00;;;;;;;8.83;100.00;99896.53;5012729;28;20029;-72
2023/03/18 02:02:52;;;;;;;5.13;3.90;;;;;;;8.94;100.00;99915.78;4994199;28;20695;-73
2023/03/18 02:05:22;;;;;;;6.35;4.63;;;;;;;8.91;100.00;99897.50;4967410;28;20053;-74
2023/03/18 02:07:48;;;;;;;8.52;4.68;;;;;;;8.87;100.00;99919.16;5010972;28;20034;-73
2023/03/18 02:10:25;;;;;;;6.85;4.10;;;;;;;8.91;100.00;99956.09;4982858;28;20479;-73
2023/03/18 02:12:57;;;;;;;6.05;4.03;;;;;;;8.83;100.00;99938.31;4985544;28;20039;-75
2023/03/18 02:15:29;;;;;;;8.85;4.65;;;;;;;8.79;100.00;99992.88;5005422;28;20026;-73
2023/03/18 02:18:01;;;;;;;5.80;3.55;;;;;;;8.87;100.00;100025.66;4991567;28;20046;-77
2023/03/18 02:20:37;;;;;;;11.25;4.63;;;;;;;8.81;100.00;100026.31;4981378;28;20027;-76
2023/03/18 02:23:14;;;;;;;10.75;4.93;;;;;;;8.76;100.00;100060.59;4993139;28;20049;-72
2023/03/18 02:25:46;;;;;;;6.90;3.67;;;;;;;8.81;100.00;100106.16;4978972;28;20573;-77
2023/03/18 02:28:17;;;;;;;9.02;4.70;;;;;;;8.80;100.00;100106.31;4966730;28;20385;-75
2023/03/18 02:30:47;;;;;;;6.75;4.32;;;;;;;8.73;100.00;100134.59;4977818;28;20038;-74
2023/03/18 02:33:16;;;;;;;11.00;4.93;;;;;;;8.71;100.00;100174.69;4968087;28;20038;-73
2023/03/18 02:35:46;;;;;;;7.53;4.43;;;;;;;8.73;100.00;100204.63;4979364;28;20085;-75
2023/03/18 02:38:12;;;;;;;8.48;3.97;;;;;;;8.65;100.00;100245.34;4979998;28;20484;-73
2023/03/18 02:40:40;;;;;;;6.18;4.18;;;;;;;8.67;100.00;100239.88;5010887;28;20084;-74
2023/03/18 02:43:21;;;;;;;7.60;4.13;;;;;;;8.61;100.00;100291.09;4982548;28;20054;-75
2023/03/18 02:46:05;;;;;;;8.65;4.25;;;;;;;8.65;100.00;100285.28;4976562;28;20066;-74
2023/03/18 02:48:36;;;;;;;7.72;4.45;;;;;;;8.69;100.00;100300.94;5006907;28;20072;-75
2023/03/18 02:51:03;;;;;;;6.95;4.25;;;;;;;8.69;100.00;100288.47;4980379;28;20047;-74
2023/03/18 02:53:28;;;;;;;9.32;4.55;;;;;;;8.66;100.00;100281.63;4979700;28;20539;-73
2023/03/18 02:55:54;;;;;;;6.53;4.63;;;;;;;8.56;100.00;100277.44;5008795;28;20125;-74
2023/03/18 02:58:19;;;;;;;7.10;4.67;;;;;;;8.50;100.00;100294.03;4964987;28;20790;-73
2023/03/18 03:00:47;;;;;;;12.75;4.78;;;;;;;8.57;100.00;100329.63;4964626;28;20093;-73
2023/03/18 03:03:12;;;;;;;9.47;4.97;;;;;;;8.59;100.00;100322.34;4964155;28;20031;-74
2023/03/18 03:05:38;;;;;;;8.50;4.27;;;;;;;8.54;100.00;100314.00;4978543;28;20034;-75
2023/03/18 03:08:04;;;;;;;5.47;3.92;;;;;;;8.48;100.00;100312.00;4993212;28;20026;-75
2023/03/18 03:10:32;;;;;;;7.15;4.05;;;;;;;8.53;100.00;100330.97;4975744;28;20037;-75
2023/03/18 03:12:59;;;;;;;6.95;4.40;;;;;;;8.51;100.00;100354.25;4979623;28;20035;-73
2023/03/18 03:15:25;;;;;;;9.07;4.72;;;;;;;8.55;100.00;100372.41;4995522;28;20258;-75
2023/03/18 03:17:55;;;;;;;8.43;4.28;;;;;;;8.53;100.00;100366.38;4975786;28;20030;-77
2023/03/18 03:20:20;;;;;;;7.90;4.57;;;;;;;8.51;100.00;100356.91;4980023;28;20493;-75
2023/03/18 03:22:46;;;;;;;9.23;4.90;;;;;;;8.47;100.00;100355.53;4977911;28;20034;-73
2023/03/18 03:25:12;;;;;;;9.87;4.50;;;;;;;8.57;100.00;100345.59;4994343;28;20293;-73
2023/03/18 03:27:38;;;;;;;;;;;;;;;8.57;100.00;100326.97;4995579;28;20030;-72
2023/03/18 03:30:06;;;;;;;6.97;4.20;;;;;;;8.49;100.00;100325.13;4993274;28;19945;-73
2023/03/18 03:32:31;;;;;;;7.95;3.80;;;;;;;8.47;100.00;100363.53;5011254;28;20120;-73
2023/03/18 03:34:57;;;;;;;7.20;4.30;;;;;;;8.41;100.00;100360.50;5008357;28;20580;-73
2023/03/18 03:37:22;;;;;;;10.17;4.17;;;;;;;8.37;100.00;100368.94;5011482;28;20026;-73
2023/03/18 03:39:48;;;;;;;11.57;5.77;;;;;;;8.36;100.00;100357.47;4977202;28;20099;-73
2023/03/18 03:42:13;;;;;;;8.33;4.27;;;;;;;8.31;100.00;100359.75;4965206;28;20374;-73
2023/03/18 03:44:39;;;;;;;11.05;5.63;;;;;;;8.37;100.00;100359.13;4962294;28;20114;-76
2023/03/18 03:47:06;;;;;;;12.95;5.20;;;;;;;8.36;100.00;100341.50;4976706;28;20145;-78
2023/03/18 03:49:31;;;;;;;;;;;;;;;8.37;100.00;100331.69;4994532;28;20026;-74
2023/03/18 03:51:57;;;;;;;7.03;4.95;;;;;;;8.32;100.00;100302.91;5007981;28;19921;-74
2023/03/18 03:54:24;;;;;;;9.07;4.67;;;;;;;8.28;100.00;100290.09;5011157;28;20584;-73
2023/03/18 03:56:50;;;;;;;9.40;4.60;;;;;;;8.31;100.00;100281.78;4975474;28;20309;-74
2023/03/18 03:59:16;;;;;;;5.20;4.30;;;;;;;8.25;100.00;100275.28;4993506;28;20041;-74
2023/03/18 04:02:02;;;;;;;11.07;4.88;;;;;;;8.31;100.00;100272.00;5008025;28;20147;-73
2023/03/18 04:04:28;;;;;;;8.52;5.05;;;;;;;8.28;100.00;100258.16;5010992;28;20028;-74
2023/03/18 04:06:54;;;;;;;7.15;4.63;;;;;;;8.36;100.00;100268.84;5007337;28;20093;-73
2023/03/18 04:09:20;;;;;;;9.85;4.47;;;;;;;8.39;100.00;100242.75;4974987;28;20140;-77
2023/03/18 04:11:46;;;;;;;5.75;4.25;;;;;;;8.40;100.00;100225.00;4992683;28;20034;-74
2023/03/18 04:14:12;;;;;;;;;;;;;;;8.37;100.00;100215.47;4979107;28;20030;-73
2023/03/18 04:16:38;;;;;;;;;;;;;;;8.41;100.00;100222.19;4978772;28;20402;-74
2023/03/18 04:19:05;;;;;;;10.87;4.43;;;;;;;8.40;100.00;100219.66;5007953;28;20295;-73
2023/03/18 04:21:30;;;;;;;7.20;4.90;;;;;;;8.30;100.00;100227.75;4977929;28;20293;-75
2023/03/18 04:23:56;;;;;;;7.47;4.55;;;;;;;8.25;100.00;100243.38;4978456;28;20028;-73
2023/03/18 04:26:22;;;;;;;9.43;4.55;;;;;;;8.30;100.00;100278.28;4974959;28;20394;-74
2023/03/18 04:28:48;;;;;;;7.43;5.18;;;;;;;8.35;100.00;100286.63;5007532;28;20041;-73
2023/03/18 04:31:15;;;;;;;9.35;4.85;;;;;;;8.38;100.00;100267.69;4963822;28;20578;-77
2023/03/18 04:33:41;;;;;;;8.57;4.80;;;;;;;8.39;100.00;100260.53;4996486;28;20046;-73
2023/03/18 04:36:07;;;;;;;6.60;4.32;;;;;;;8.39;100.00;100263.22;4992448;28;20031;-73
2023/03/18 04:38:33;;;;;;;8.13;4.65;;;;;;;8.40;100.00;100257.75;4993255;28;20037;-76
2023/03/18 04:40:58;;;;;;;6.47;4.20;;;;;;;8.40;100.00;100263.06;4991182;28;20035;-74
2023/03/18 04:43:24;;;;;;;9.60;5.40;;;;;;;8.34;100.00;100263.69;4977502;28;20066;-73
2023/03/18 04:45:50;;;;;;;6.85;4.75;;;;;;;8.46;100.00;100258.94;4991256;28;20039;-76
2023/03/18 04:48:16;;;;;;;7.88;5.00;;;;;;;8.43;100.00;100225.50;4992787;28;20046;-74
2023/03/18 04:50:44;;;;;;;10.57;5.88;;;;;;;8.40;100.00;100225.81;4975590;28;20034;-77
2023/03/18 04:53:15;;;;;;;9.10;5.38;;;;;;;8.32;100.00;100233.75;5009672;28;20551;-77
2023/03/18 04:55:42;;;;;;;11.20;5.63;;;;;;;8.40;100.00;100255.06;4976230;28;20044;-73
2023/03/18 04:58:10;;;;;;;8.73;5.40;;;;;;;8.40;100.00;100268.38;4965017;28;20145;-77
2023/03/18 05:00:39;;;;;;;8.02;5.07;;;;;;;8.39;100.00;100266.69;4976331;28;20600;-76
2023/03/18 05:03:28;;;;;;;9.73;5.35;;;;;;;8.40;100.00;100260.41;4979722;28;20037;-75
2023/03/18 05:05:53;;;;;;;10.00;4.97;;;;;;;8.40;100.00;100254.25;4975477;28;20043;-74
2023/03/18 05:08:24;;;;;;;10.00;5.18;;;;;;;8.42;100.00;100254.94;4959996;28;20121;-73
2023/03/18 05:10:50;;;;;;;;;;;;;;;8.47;100.00;100249.13;4979573;28;20034;-75
2023/03/18 05:13:17;;;;;;;10.85;4.95;;;;;;;8.46;100.00;100248.31;4975427;28;19921;-73
2023/03/18 05:15:42;;;;;;;9.25;4.97;;;;;;;8.42;100.00;100244.28;5006628;28;20030;-72
2023/03/18 05:18:08;;;;;;;10.33;5.70;;;;;;;8.42;100.00;100228.31;4977354;28;20073;-72
2023/03/18 05:20:34;;;;;;;8.23;5.47;;;;;;;8.45;100.00;100231.50;4991805;28;20514;-76
2023/03/18 05:23:00;;;;;;;12.48;5.40;;;;;;;8.46;100.00;100221.69;4991096;28;20038;-75
2023/03/18 05:25:37;;;;;;;10.27;4.53;;;;;;;8.43;100.00;100222.84;4976313;28;20108;-76
2023/03/18 05:28:03;;;;;;;12.52;5.65;;;;;;;8.42;100.00;100217.69;5007711;28;20093;-73
2023/03/18 05:30:39;;;;;;;12.32;6.50;;;;;;;8.44;100.00;100211.22;4990606;28;20034;-73
2023/03/18 05:33:04;;;;;;;11.70;5.32;;;;;;;8.49;100.00;100209.91;4991498;28;20518;-74
2023/03/18 05:35:39;;;;;;;8.73;5.78;;;;;;;8.48;100.00;100205.59;5008686;28;20540;-73
2023/03/18 05:38:06;;;;;;;9.73;5.13;;;;;;;8.51;100.00;100210.56;4993223;28;20034;-78
2023/03/18 05:40:32;;;;;;;12.05;5.65;;;;;;;8.49;100.00;100204.56;4978157;28;20503;-73
2023/03/18 05:43:06;;;;;;;7.20;5.45;;;;;;;8.55;100.00;100217.25;4978950;28;20027;-74
2023/03/18 05:45:38;;;;;;;12.30;6.30;;;;;;;8.47;100.00;100209.22;4976392;28;20022;-73
2023/03/18 05:48:05;;;;;;;15.85;5.68;;;;;;;8.53;100.00;100216.56;4990709;28;20042;-74
2023/03/18 05:50:39;;;;;;;10.30;6.35;;;;;;;8.51;100.00;100216.72;4976215;28;20026;-74
2023/03/18 05:53:08;;;;;;;12.13;5.75;;;;;;;8.55;100.00;100207.44;4963338;28;20073;-73
2023/03/18 05:55:37;;;;;;;10.52;6.18;;;;;;;8.55;100.00;100211.91;4975714;28;20126;-74
2023/03/18 05:58:03;;;;;;;10.98;6.28;;;;;;;8.56;100.00;100230.38;4990878;28;20466;-75
2023/03/18 06:00:31;;;;;;;11.43;6.32;;;;;;;8.54;100.00;100226.19;4980076;28;20092;-73
2023/03/18 06:03:00;;;;;;;11.23;5.95;;;;;;;8.56;100.00;100245.50;4981063;28;20033;-75
2023/03/18 06:05:27;;;;;;;10.35;5.97;;;;;;;8.64;100.00;100245.53;4980491;28;20062;-74
2023/03/18 06:07:53;;;;;;;9.70;6.05;;;;;;;8.67;100.00;100242.53;4977287;28;20041;-75
2023/03/18 06:10:21;;;;;;;9.93;5.63;;;;;;;8.74;100.00;100253.38;5012850;28;20053;-74
2023/03/18 06:12:48;;;;;;;14.60;6.72;;;;;;;8.73;100.00;100238.38;5007357;28;20484;-73
2023/03/18 06:15:16;;;;;;;11.02;5.80;;;;;;;8.72;100.00;100218.94;4967230;28;20026;-76
2023/03/18 06:17:41;;;;;;;11.55;5.72;;;;;;;8.77;100.00;100232.56;4995206;28;20034;-73
2023/03/18 06:20:08;;;;;;;14.40;5.60;;;;;;;8.80;100.00;100236.75;4998039;28;20035;-76
2023/03/18 06:22:34;;;;;;;15.85;6.93;;;;;;;8.74;100.00;100226.75;4995886;28;20165;-73
2023/03/18 06:25:00;;;;;;;9.73;6.13;;;;;;;8.75;100.00;100239.88;4993435;28;20137;-75
2023/03/18 06:27:25;;;;;;;11.73;6.55;;;;;;;8.75;100.00;100239.88;4980217;28;20026;-74
2023/03/18 06:29:55;;;;;;;11.27;6.60;;;;;;;8.79;100.00;100241.22;4989478;28;20034;-77
2023/03/18 06:32:21;;;;;;;15.48;6.55;;;;;;;8.72;100.00;100242.88;5012885;28;20034;-73
2023/03/18 06:34:47;;;;;;;12.35;6.03;;;;;;;8.79;100.00;100246.56;4979156;28;20607;-73
2023/03/18 06:37:14;;;;;;;13.88;6.88;;;;;;;8.81;100.00;100241.91;4982268;28;20034;-73
2023/03/18 06:39:39;;;;;;;10.65;6.65;;;;;;;8.77;100.00;100240.56;4978038;28;20026;-77
2023/03/18 06:42:07;;;;;;;12.48;6.63;;;;;;;8.86;100.00;100236.09;4993208;28;20058;-73
2023/03/18 06:44:45;;;;;;;10.98;6.28;;;;;;;8.75;100.00;100229.25;4978301;28;20575;-73
2023/03/18 06:47:23;;;;;;;15.25;7.63;;;;;;;8.78;100.00;100250.22;4980293;28;20078;-75
2023/03/18 06:49:55;;;;;;;14.77;6.95;;;;;;;8.72;100.00;100263.34;4966356;28;20034;-73
2023/03/18 06:52:27;;;;;;;16.85;7.57;;;;;;;8.62;100.00;100279.47;5006743;28;20097;-72
2023/03/18 06:54:57;;;;;;;11.05;6.38;;;;;;;8.64;100.00;100293.44;5007819;28;20031;-73
2023/03/18 06:57:23;;;;;;;13.68;7.38;;;;;;;8.62;100.00;100292.75;4995827;28;20027;-73
2023/03/18 06:59:49;;;;;;;13.75;7.15;;;;;;;8.66;100.00;100304.72;4976439;28;20034;-73
2023/03/18 07:02:14;;;;;;;10.48;6.75;;;;;;;8.69;100.00;100303.59;4980159;28;20041;-78
2023/03/18 07:04:40;;;;;;;14.20;7.43;;;;;;;8.62;100.00;100298.91;4977650;28;20034;-76
2023/03/18 07:07:06;;;;;;;13.15;7.28;;;;;;;8.73;100.00;100311.06;5010176;28;20026;-73
2023/03/18 07:09:33;;;;;;;13.23;6.70;;;;;;;8.78;100.00;100311.44;5011042;28;20030;-74
2023/03/18 07:11:59;;;;;;;12.95;6.90;;;;;;;8.81;100.00;100292.47;4992384;28;20037;-74
2023/03/18 07:14:25;;;;;;;11.45;7.57;;;;;;;8.88;100.00;100303.31;5011835;28;20026;-78
2023/03/18 07:16:50;;;;;;;12.27;7.20;;;;;;;8.85;100.00;100293.00;4976276;28;20656;-76
2023/03/18 07:19:18;;;;;;;11.25;7.75;;;;;;;8.88;100.00;100288.19;4967480;28;20041;-73
2023/03/18 07:21:45;;;;;;;14.02;7.53;;;;;;;9.02;100.00;100299.19;5008294;28;20203;-73
2023/03/18 07:24:11;;;;;;;;;;;;;;;9.18;100.00;100287.75;4979192;28;20125;-74
2023/03/18 07:26:37;;;;;;;12.32;7.22;;;;;;;9.05;100.00;100258.91;4994252;28;19916;-75
2023/03/18 07:29:03;;;;;;;11.82;7.05;;;;;;;9.06;100.00;100252.59;4965352;28;20515;-74
2023/03/18 07:31:29;;;;;;;10.32;6.72;;;;;;;9.14;100.00;100257.09;4990617;28;20076;-74
2023/03/18 07:33:56;;;;;;;13.18;7.50;;;;;;;9.21;100.00;100261.59;4993308;28;20078;-78
2023/03/18 07:36:22;;;;;;;13.93;8.48;;;;;;;9.36;100.00;100263.59;4978764;28;20137;-74
2023/03/18 07:38:47;;;;;;;19.05;7.95;;;;;;;9.36;100.00;100242.28;4977234;28;20498;-75
2023/03/18 07:41:13;;;;;;;17.53;8.20;;;;;;;9.34;100.00;100241.63;4975785;28;20043;-73
2023/03/18 07:43:38;;;;;;;17.10;9.60;;;;;;;9.44;100.00;100245.78;4979297;28;20037;-73
2023/03/18 07:46:05;;;;;;;13.50;7.97;;;;;;;9.52;100.00;100253.75;4977896;28;20109;-73
2023/03/18 07:48:32;;;;;;;21.45;8.48;;;;;;;9.57;100.00;100234.59;4978277;28;20046;-76
2023/03/18 07:50:59;;;;;;;14.38;8.05;;;;;;;9.64;100.00;100232.94;4978105;28;20067;-74
2023/03/18 07:53:25;;;;;;;12.80;7.25;;;;;;;9.73;100.00;100229.25;4978472;28;20538;-73
2023/03/18 07:55:50;;;;;;;18.02;8.23;;;;;;;9.89;100.00;100239.06;4991251;28;20035;-75
2023/03/18 07:58:15;;;;;;;15.43;8.50;;;;;;;9.73;100.00;100191.94;4966251;28;20146;-74
2023/03/18 08:00:41;;;;;;;15.23;8.70;;;;;;;9.71;100.00;100196.59;5005512;28;20080;-73
2023/03/18 08:03:08;;;;;;;17.90;9.00;;;;;;;9.85;100.00;100200.41;4966483;28;20428;-73
2023/03/18 08:05:33;;;;;;;15.07;8.25;;;;;;;10.00;100.00;100197.88;4993461;28;20222;-74
2023/03/18 08:08:01;;;;;;;17.60;8.63;;;;;;;10.10;100.00;100157.66;4995032;23;20045;-83
2023/03/18 08:10:26;;;;;;;15.00;8.48;;;;;;;10.30;100.00;100160.75;4976982;28;20069;-83
2023/03/18 08:12:51;;;;;;;20.87;9.27;;;;;;;10.37;100.00;100124.34;4992416;28;20038;-86
2023/03/18 08:15:17;;;;;;;14.73;8.00;;;;;;;10.62;100.00;100102.84;4992200;28;20382;-86
2023/03/18 08:17:42;;;;;;;16.83;8.48;;;;;;;10.85;100.00;100076.94;4996217;28;20061;-83
2023/03/18 08:20:09;;;;;;;14.63;7.33;;;;;;;10.98;100.00;100039.78;4992358;28;20089;-86
2023/03/18 08:22:34;;;;;;;15.30;8.07;;;;;;;11.54;100.00;100042.00;4991352;28;20034;-86
2023/03/18 08:25:00;;;;;;;16.07;9.47;;;;;;;12.07;100.00;99910.72;4988889;28;20038;-83
2023/03/18 08:27:25;;;;;;;13.57;7.47;;;;;;;12.22;100.00;99831.19;4976635;28;20026;-84
2023/03/18 08:29:50;;;;;;;15.80;8.53;;;;;;;13.15;100.00;99774.53;4975076;28;20045;-85
2023/03/18 08:32:16;;;;;;;15.40;7.23;;;;;;;13.91;100.00;99607.84;4992061;28;20125;-85
2023/03/18 08:34:42;;;;;;;12.63;8.30;;;;;;;14.04;100.00;99396.84;4975128;28;20038;-85
2023/03/18 08:37:08;;;;;;;18.10;9.25;;;;;;;13.12;100.00;99220.25;4991018;28;20293;-86
2023/03/18 08:39:33;;;;;;;15.10;9.18;;;;;;;12.63;100.00;99286.84;4976031;28;20093;-81
2023/03/18 08:42:02;;;;;;;19.10;9.50;;;;;;;12.62;100.00;99380.78;4992839;28;20041;-84
2023/03/18 08:44:27;;;;;;;14.73;8.27;;;;;;;12.65;100.00;99450.78;4976277;28;20040;-83
2023/03/18 08:46:52;;;;;;;17.93;9.37;;;;;;;12.61;100.00;99451.41;4978012;28;20046;-84
2023/03/18 08:49:18;;;;;;;20.03;11.40;;;;;;;12.33;100.00;99505.16;4993870;28;20030;-84
2023/03/18 08:51:43;;;;;;;18.17;10.55;;;;;;;12.45;100.00;99525.78;4977987;28;20077;-82
2023/03/18 08:54:09;;;;;;;16.30;10.67;;;;;;;12.20;100.00;99495.25;4979185;28;20841;-82
2023/03/18 08:56:34;;;;;;;16.10;10.63;;;;;;;12.33;100.00;99569.38;4989017;28;20044;-79
2023/03/18 08:59:00;;;;;;;17.87;10.40;;;;;;;12.47;100.00;99592.47;4993416;28;20499;-80
2023/03/18 09:01:25;;;;;;;24.25;11.13;;;;;;;12.16;100.00;99543.00;4972884;28;20525;-80
2023/03/18 09:03:50;;;;;;;23.93;11.63;;;;;;;12.14;100.00;99603.91;4983717;28;20487;-84
2023/03/18 09:06:16;;;;;;;15.10;11.00;;;;;;;12.10;100.00;99621.38;4976142;28;20378;-81
2023/03/18 09:08:43;;;;;;;19.02;11.52;;;;;;;12.27;100.00;99639.75;4971969;28;20176;-84
2023/03/18 09:11:09;;;;;;;22.60;12.82;;;;;;;12.12;100.00;99599.78;4989854;28;20030;-86
2023/03/18 09:13:35;;;;;;;23.23;12.75;;;;;;;12.14;100.00;99662.78;4993369;28;20557;-85
2023/03/18 09:16:01;;;;;;;22.90;12.38;;;;;;;12.00;100.00;99596.84;4993174;28;20072;-85
2023/03/18 09:18:27;;;;;;;21.50;13.35;;;;;;;12.03;100.00;99687.41;4975218;28;20030;-86
2023/03/18 09:20:52;;;;;;;22.27;11.93;;;;;;;12.18;100.00;99709.50;4989776;28;20109;-86
2023/03/18 09:23:18;;;;;;;21.17;12.03;;;;;;;12.46;100.00;99725.50;4987718;28;20029;-87
2023/03/18 09:25:45;;;;;;;22.88;11.85;;;;;;;12.53;100.00;99681.88;4994909;28;20038;-87
2023/03/18 09:28:11;;;;;;;22.20;12.95;;;;;;;12.56;100.00;99644.78;4976639;28;20086;-84
2023/03/18 09:30:37;;;;;;;25.08;13.30;;;;;;;12.60;100.00;99677.38;4997212;28;20499;-86
2023/03/18 09:33:05;;;;;;;20.85;13.82;;;;;;;12.20;100.00;99592.41;4974859;28;20684;-83
2023/03/18 09:35:31;;;;;;;21.92;14.68;;;;;;;12.36;100.00;99676.03;4975705;28;20034;-80
2023/03/18 09:37:56;;;;;;;26.98;14.25;;;;;;;12.95;100.00;99754.94;4978221;28;20035;-83
2023/03/18 09:40:34;;;;;;;22.00;13.73;;;;;;;13.76;100.00;99650.19;4979355;28;20031;-82
2023/03/18 09:43:16;;;;;;;24.55;14.88;;;;;;;13.71;100.00;99500.63;4978804;28;20103;-80
2023/03/18 09:46:15;;;;;;;26.73;15.25;;;;;;;13.76;100.00;99403.41;4975157;28;20039;-83
2023/03/18 09:49:00;;;;;;;24.83;15.25;;;;;;;13.59;100.00;99370.94;4988933;28;20039;-83
2023/03/18 09:51:27;;;;;;;;;;;;;;;13.35;100.00;99398.50;4988514;28;20526;-84
2023/03/18 09:54:07;;;;;;;28.10;17.45;;;;;;;13.27;100.00;99421.84;4975337;28;19963;-83
2023/03/18 09:56:35;;;;;;;26.77;16.35;;;;;;;13.03;100.00;99484.94;4988163;28;20037;-84
2023/03/18 09:59:04;;;;;;;23.85;15.88;;;;;;;13.22;100.00;99518.06;4987837;28;20022;-84
2023/03/18 10:01:34;;;;;;;30.35;18.67;;;;;;;12.90;100.00;99474.25;4993592;28;20042;-83
2023/03/18 10:04:19;;;;;;;32.05;19.40;;;;;;;12.86;100.00;99551.50;4976043;28;20106;-86
2023/03/18 10:06:47;;;;;;;29.10;19.92;;;;;;;12.80;100.00;99605.91;4976514;28;20105;-82
2023/03/18 10:09:19;;;;;;;32.00;19.85;;;;;;;12.71;100.00;99603.63;4974961;28;20026;-84
2023/03/18 10:11:52;;;;;;;29.00;19.15;;;;;;;12.75;100.00;99674.50;4991010;28;20042;-83
2023/03/18 10:14:41;;;;;;;33.38;20.23;;;;;;;12.15;100.00;99624.31;4992809;28;20022;-83
2023/03/18 10:17:13;;;;;;;32.70;18.80;;;;;;;12.29;100.00;99823.22;4975197;28;20034;-85
2023/03/18 10:20:03;;;;;;;33.92;20.90;;;;;;;12.15;100.00;99802.72;4975064;28;20039;-86
2023/03/18 10:22:47;;;;;;;33.72;21.10;;;;;;;12.30;100.00;99882.91;4969463;28;20117;-87
2023/03/18 10:25:31;;;;;;;34.78;19.92;;;;;;;12.17;100.00;99841.63;4992058;28;20129;-82
2023/03/18 10:28:07;;;;;;;32.85;19.33;;;;;;;12.32;100.00;99983.41;4972370;28;20043;-84
2023/03/18 10:30:44;;;;;;;33.35;20.05;;;;;;;12.32;100.00;99982.59;4989504;28;20502;-82
2023/03/18 10:33:40;;;;;;;35.45;19.73;;;;;;;12.35;100.00;99953.56;4984896;28;20049;-81
2023/03/18 10:36:18;;;;;;;30.73;19.20;;;;;;;12.20;100.00;99972.38;4992906;28;20065;-83
2023/03/18 10:38:52;;;;;;;37.45;20.83;;;;;;;12.25;100.00;100017.31;5007678;28;20401;-86
2023/03/18 10:41:22;;;;;;;31.30;21.08;;;;;;;12.20;100.00;100020.56;4984958;28;20086;-86
2023/03/18 10:43:50;;;;;;;36.05;21.27;;;;;;;12.12;100.00;100068.00;4992525;28;20040;-86
2023/03/18 10:46:18;;;;;;;35.55;21.27;;;;;;;12.21;100.00;100112.38;4997146;28;20030;-87
2023/03/18 10:48:52;;;;;;;37.17;21.20;;;;;;;12.12;100.00;100170.50;4982040;28;20089;-86
2023/03/18 10:51:34;;;;;;;36.42;23.80;;;;;;;12.33;100.00;100270.63;4989900;28;20038;-85
2023/03/18 10:54:08;;;;;;;31.60;20.50;;;;;;;12.43;100.00;100279.19;4987883;28;20038;-84
2023/03/18 10:56:35;;;;;;;33.67;21.98;;;;;;;12.24;100.00;100229.75;4987366;28;20033;-89
2023/03/18 10:59:04;;;;;;;33.10;21.65;;;;;;;12.15;100.00;100241.56;5009879;28;20026;-87
2023/03/18 11:01:30;;;;;;;30.95;20.25;;;;;;;12.42;100.00;100339.13;4988620;28;20094;-83
2023/03/18 11:04:04;;;;;;;32.85;22.30;;;;;;;12.70;100.00;100323.22;4972889;28;20030;-85
2023/03/18 11:06:40;;;;;;;34.15;20.38;;;;;;;12.96;100.00;100282.53;4989265;28;20049;-83
2023/03/18 11:09:11;;;;;;;34.85;20.92;;;;;;;12.99;100.00;100145.47;4996832;28;20086;-81
2023/03/18 11:11:42;;;;;;;31.38;20.90;;;;;;;13.25;100.00;100125.28;4982487;28;20093;-86
2023/03/18 11:14:15;;;;;;;32.70;18.60;;;;;;;13.39;100.00;100067.25;4993072;28;20129;-83
2023/03/18 11:16:51;;;;;;;31.15;19.33;;;;;;;13.38;100.00;99958.38;4976008;28;20034;-84
2023/03/18 11:19:26;;;;;;;33.50;19.60;;;;;;;13.38;100.00;99991.34;4980235;28;20120;-86
2023/03/18 11:22:03;;;;;;;28.23;18.23;;;;;;;13.76;100.00;99939.91;4984821;28;20285;-86
2023/03/18 11:24:37;;;;;;;29.52;17.25;;;;;;;14.48;100.00;99908.78;4991696;28;20027;-84
2023/03/18 11:27:05;;;;;;;31.00;16.98;;;;;;;14.53;100.00;99685.22;4974660;28;20053;-86
2023/03/18 11:29:33;;;;;;;33.38;18.42;;;;;;;15.38;100.00;99668.75;4990960;28;20398;-85